KFKN/FKN METAR and TAF weather

Enter ICAO airport designator
Station Type Date Time Source
KFKN METAR 2021/03/02 17:15 UTC NOAA

KFKN 021715Z AUTO 36003KT 10SM CLR 08/M06 A3031 RMK AO2 T00761062


Station Type Date Time Source
KFKN Decoded METAR 2021/03/02 17:15 UTC NOAA

Franklin / J B Rose, VA, United States (KFKN) 36-42N 076-54W
Mar 02, 2021 - 12:15 PM EST / 2021.03.02 1715 UTC
Wind: from the N (360 degrees) at 3 MPH (3 KT):0
Visibility: 10 mile(s):0
Sky conditions: clear
Temperature: 45.7 F (7.6 C)
Dew Point: 20.8 F (-6.2 C)
Relative Humidity: 36%
Pressure (altimeter): 30.31 in. Hg (1026 hPa)
ob: KFKN 021715Z AUTO 36003KT 10SM CLR 08/M06 A3031 RMK AO2 T00761062
cycle: 17

Station Type Date Time Source
KFKN TAF UTC NOAA

Error!

Example: see airport list